This is the latest recevied weather packets stored in our database for station/object N1OTX. If no packets are shown the sender has not sent any weather packets the latest 10 day(s).
| Time | Temp. | Humidity | Pressure | Rain* | Wind** | Luminosity | Snow |
|---|---|---|---|---|---|---|---|
| 1778039128 | 17.78° C | 61% | 1009.9 hPa | 0 mm | - | 0 W/m² | - |
| 1778037627 | 17.78° C | 60% | 1009.8 hPa | 0 mm | - | 0 W/m² | - |
| 1778037027 | 17.78° C | 60% | 1009.7 hPa | 0 mm | - | 0 W/m² | - |
| 1778035829 | 17.78° C | 58% | 1009.8 hPa | 0 mm | - | 0 W/m² | - |
| 1778034928 | 17.78° C | 58% | 1009.8 hPa | 0 mm | - | 0 W/m² | - |
| 1778034328 | 18.33° C | 57% | 1009.8 hPa | 0 mm | - | 0 W/m² | - |
| 1778034027 | 18.33° C | 57% | 1009.7 hPa | 0 mm | - | 0 W/m² | - |
| 1778032227 | 18.89° C | 55% | 1009.7 hPa | 0 mm | - | 0 W/m² | - |
| 1778030748 | 19.44° C | 54% | 1009.4 hPa | 0 mm | - | 0 W/m² | - |
| 1778026228 | 19.44° C | 54% | 1008.3 hPa | 0 mm | - | 0 W/m² | - |
| 1778025048 | 20° C | 53% | 1007.9 hPa | 0 mm | - | 3 W/m² | - |
| 1778021128 | 22.22° C | 48% | 1006.9 hPa | 0 mm | - | 51 W/m² | - |
| 1778018767 | 22.78° C | 46% | 1006.8 hPa | 0 mm | - | 82 W/m² | - |
| 1778014527 | 25° C | 41% | 1006.2 hPa | 0 mm | - | 322 W/m² | - |
| 1778009727 | 27.22° C | 37% | 1006.3 hPa | 0 mm | - | 544 W/m² | - |
| 1778008228 | 27.22° C | 36% | 1006.4 hPa | 0 mm | - | 638 W/m² | - |
| 1778005528 | 27.22° C | 39% | 1007.2 hPa | 0 mm | - | 725 W/m² | - |
| 1778004928 | 27.78° C | 38% | 1007.2 hPa | 0 mm | - | 745 W/m² | - |
| 1778004628 | 27.78° C | 38% | 1007.3 hPa | 0 mm | - | 754 W/m² | - |
| 1778004328 | 27.78° C | 38% | 1007.2 hPa | 0 mm | - | 758 W/m² | - |
| 1778003427 | 28.33° C | 37% | 1007.5 hPa | 0 mm | - | 774 W/m² | - |
| 1778001929 | 27.22° C | 36% | 1007.8 hPa | 0 mm | - | 804 W/m² | - |
| 1778001328 | 27.22° C | 36% | 1007.8 hPa | 0 mm | - | 814 W/m² | - |
| 1778000728 | 26.67° C | 38% | 1008 hPa | 0 mm | - | 819 W/m² | - |
| 1778000448 | 26.67° C | 38% | 1008.1 hPa | 0 mm | - | 814 W/m² | - |
* Rain latest hour (hover to see other rain measurements)
** Current wind speed in m/s (hover to see current wind gust speed)